Time;durP1;ratioP1;P1;durP2;ratioP2;P2;SDS_P1;SDS_P2;PMS_P1;PMS_P2;Temp;Humidity;BMP_temperature;BMP_pressure;BME280_temperature;BME280_humidity;BME280_pressure;Samples;Min_cycle;Max_cycle;Signal;HPM_P1;HPM_P2
2023/05/20 00:00:03;;;;;;;;;;;;;;;-140.72;100.00;52589.72;5011663;28;19956;-71
2023/05/20 00:02:28;;;;;;;;;;;;;;;-140.72;100.00;52589.72;5013429;28;20667;-72
2023/05/20 00:04:53;;;;;;;;;;;;;;;-140.72;100.00;52593.78;5013268;28;19929;-72
2023/05/20 00:07:19;;;;;;;;;;;;;;;-140.72;100.00;52561.31;5007721;28;19922;-72
2023/05/20 00:09:44;;;;;;;;;;;;;;;-140.72;100.00;52618.13;5010570;28;19951;-72
2023/05/20 00:12:09;;;;;;;;;;;;;;;-140.72;100.00;52567.41;5008186;28;19921;-72
2023/05/20 00:14:36;;;;;;;;;;;;;;;-140.72;100.00;52563.34;5004205;28;19948;-72
2023/05/20 00:17:01;;;;;;;;;;;;;;;-140.72;100.00;52559.28;5009842;28;19930;-72
2023/05/20 00:19:26;;;;;;;;;;;;;;;-140.72;100.00;52563.34;5011198;28;20394;-72
2023/05/20 00:21:51;;;;;;;;;;;;;;;-140.72;100.00;52571.47;5014312;28;19925;-71
2023/05/20 00:24:16;;;;;;;;;;;;;;;-140.72;100.00;52577.53;5012382;28;19925;-72
2023/05/20 00:26:44;;;;;;;;;;;;;;;-140.72;100.00;52565.38;5008562;28;19932;-72
2023/05/20 00:29:09;;;;;;;;;;;;;;;-140.72;100.00;52561.31;5012014;28;19968;-72
2023/05/20 00:31:34;;;;;;;;;;;;;;;-140.72;100.00;52585.66;5011863;28;20371;-72
2023/05/20 00:34:00;;;;;;;;;;;;;;;-140.72;100.00;52622.19;5012863;28;19928;-72
2023/05/20 00:36:26;;;;;;;;;;;;;;;-140.72;100.00;52569.44;5004756;28;19933;-72
2023/05/20 00:38:51;;;;;;;;;;;;;;;-140.72;100.00;52597.84;5013379;28;19921;-72
2023/05/20 00:41:16;;;;;;;;;;;;;;;-140.72;100.00;52583.63;5012747;28;19921;-72
2023/05/20 00:43:41;;;;;;;;;;;;;;;-140.72;100.00;52585.66;5013077;28;19937;-72
2023/05/20 00:46:07;;;;;;;;;;;;;;;-140.72;100.00;52614.06;5011303;28;19929;-72
2023/05/20 00:48:38;;;;;;;;;;;;;;;-140.72;100.00;52589.72;5013377;28;19929;-72
2023/05/20 00:51:03;;;;;;;;;;;;;;;-140.72;100.00;52589.72;5013831;28;19922;-72
2023/05/20 00:53:29;;;;;;;;;;;;;;;-140.72;100.00;52575.50;5016910;28;19925;-72
2023/05/20 00:55:54;;;;;;;;;;;;;;;-140.72;100.00;52593.78;5012851;28;19985;-72
2023/05/20 00:58:19;;;;;;;;;;;;;;;-140.72;100.00;52597.84;5012379;28;19928;-72
2023/05/20 01:00:45;;;;;;;;;;;;;;;-140.72;100.00;52569.44;5010365;28;20594;-72
2023/05/20 01:03:10;;;;;;;;;;;;;;;-140.72;100.00;52605.94;5011373;28;19928;-72
2023/05/20 01:05:35;;;;;;;;;;;;;;;-140.72;100.00;52620.16;5007927;28;20275;-72
2023/05/20 01:08:01;;;;;;;;;;;;;;;-140.72;100.00;52599.88;5010881;28;19922;-72
2023/05/20 01:10:28;;;;;;;;;;;;;;;-140.72;100.00;52593.78;5012762;28;19980;-72
2023/05/20 01:12:55;;;;;;;;;;;;;;;-140.72;100.00;52612.03;5010057;28;19936;-72
2023/05/20 01:15:22;;;;;;;;;;;;;;;-140.72;100.00;52610.00;5006360;28;19922;-72
2023/05/20 01:17:51;;;;;;;;;;;;;;;-140.72;100.00;52585.66;5010106;28;20118;-72
2023/05/20 01:20:17;;;;;;;;;;;;;;;-140.72;100.00;52573.50;5013221;28;20599;-72
2023/05/20 01:22:52;;;;;;;;;;;;;;;-140.72;100.00;52622.19;5013914;28;20445;-72
2023/05/20 01:25:17;;;;;;;;;;;;;;;-140.72;100.00;52605.94;5010571;28;20340;-72
2023/05/20 01:27:42;;;;;;;;;;;;;;;-140.72;100.00;52585.66;5010703;28;19930;-72
2023/05/20 01:30:08;;;;;;;;;;;;;;;-140.72;100.00;52595.81;4997434;28;19921;-72
2023/05/20 01:32:39;;;;;;;;;;;;;;;-140.72;100.00;52601.91;5015713;28;19929;-72
2023/05/20 01:35:05;;;;;;;;;;;;;;;-140.72;100.00;52575.50;5012227;28;19925;-72
2023/05/20 01:37:31;;;;;;;;;;;;;;;-140.72;100.00;52595.81;5015446;28;19929;-72
2023/05/20 01:39:56;;;;;;;;;;;;;;;-140.72;100.00;52565.38;5014709;28;19992;-72
2023/05/20 01:42:22;;;;;;;;;;;;;;;-140.72;100.00;52589.72;5016275;28;19918;-72
2023/05/20 01:44:47;;;;;;;;;;;;;;;-140.72;100.00;52607.97;5011191;28;19929;-72
2023/05/20 01:47:12;;;;;;;;;;;;;;;-140.72;100.00;52563.34;5013954;28;19933;-72
2023/05/20 01:49:38;;;;;;;;;;;;;;;-140.72;100.00;52601.91;4995033;28;20012;-71
2023/05/20 01:52:03;;;;;;;;;;;;;;;-140.72;100.00;52599.88;5014175;28;19929;-71
2023/05/20 01:54:28;;;;;;;;;;;;;;;-140.72;100.00;52616.09;5013486;28;19922;-72
2023/05/20 01:56:54;;;;;;;;;;;;;;;-140.72;100.00;52616.09;5008215;28;20000;-71
2023/05/20 01:59:19;;;;;;;;;;;;;;;-140.72;100.00;52607.97;5013416;28;20076;-71
2023/05/20 02:01:45;;;;;;;;;;;;;;;-140.72;100.00;52583.63;5013230;28;20287;-71
2023/05/20 02:04:10;;;;;;;;;;;;;;;-140.72;100.00;52597.84;5013810;28;19929;-71
2023/05/20 02:06:35;;;;;;;;;;;;;;;-140.72;100.00;52612.03;5014321;28;19922;-71
2023/05/20 02:09:01;;;;;;;;;;;;;;;-140.72;100.00;52610.00;5015610;28;19922;-70
2023/05/20 02:11:26;;;;;;;;;;;;;;;-140.72;100.00;52601.91;5011414;28;20003;-71
2023/05/20 02:13:51;;;;;;;;;;;;;;;-140.72;100.00;52634.38;5015782;28;20331;-71
2023/05/20 02:16:17;;;;;;;;;;;;;;;-140.72;100.00;52593.78;5010396;28;19922;-71
2023/05/20 02:18:42;;;;;;;;;;;;;;;-140.72;100.00;52603.94;5014655;28;19922;-71
2023/05/20 02:21:08;;;;;;;;;;;;;;;-140.72;100.00;52601.91;5013261;28;20379;-71
2023/05/20 02:23:33;;;;;;;;;;;;;;;-140.72;100.00;52585.66;5014954;28;19928;-71
2023/05/20 02:25:59;;;;;;;;;;;;;;;-140.72;100.00;52605.94;5012492;28;20404;-71
2023/05/20 02:28:24;;;;;;;;;;;;;;;-140.72;100.00;52618.13;5014779;28;20442;-71
2023/05/20 02:30:50;;;;;;;;;;;;;;;-140.72;100.00;52618.13;5010852;28;19972;-71
2023/05/20 02:33:16;;;;;;;;;;;;;;;-140.72;100.00;52601.91;5007901;28;19967;-71
2023/05/20 02:35:41;;;;;;;;;;;;;;;-140.72;100.00;52605.94;5013651;28;20003;-71
2023/05/20 02:38:07;;;;;;;;;;;;;;;-140.72;100.00;52640.44;5008085;28;19936;-71
2023/05/20 02:40:33;;;;;;;;;;;;;;;-140.72;100.00;52593.78;5008280;28;19921;-71
2023/05/20 02:42:58;;;;;;;;;;;;;;;-140.72;100.00;52581.59;5013693;28;19928;-71
2023/05/20 02:45:23;;;;;;;;;;;;;;;-140.72;100.00;52599.88;5014990;28;20391;-71
2023/05/20 02:47:49;;;;;;;;;;;;;;;-140.72;100.00;52642.47;5013118;28;19976;-71
2023/05/20 02:50:14;;;;;;;;;;;;;;;-140.72;100.00;52575.50;5012111;28;19926;-71
2023/05/20 02:52:41;;;;;;;;;;;;;;;-140.72;100.00;52630.31;5014724;28;19922;-71
2023/05/20 02:55:06;;;;;;;;;;;;;;;-140.72;100.00;52626.25;5015207;28;19929;-71
2023/05/20 02:57:33;;;;;;;;;;;;;;;-140.72;100.00;52634.38;5011516;28;19922;-71
2023/05/20 02:59:59;;;;;;;;;;;;;;;-140.72;100.00;52624.22;5013752;28;19921;-71
2023/05/20 03:02:24;;;;;;;;;;;;;;;-140.72;100.00;52607.97;5012051;28;20032;-71
2023/05/20 03:04:49;;;;;;;;;;;;;;;-140.72;100.00;52630.31;5013319;28;19921;-71
2023/05/20 03:07:18;;;;;;;;;;;;;;;-140.72;100.00;52636.38;5014473;28;19922;-71
2023/05/20 03:09:43;;;;;;;;;;;;;;;-140.72;100.00;52607.97;5008307;28;20436;-71
2023/05/20 03:12:08;;;;;;;;;;;;;;;-140.72;100.00;52605.94;5013654;28;19921;-71
2023/05/20 03:14:33;;;;;;;;;;;;;;;-140.72;100.00;52597.84;5010886;28;19925;-71
2023/05/20 03:16:59;;;;;;;;;;;;;;;-140.72;100.00;52616.09;5011325;28;19922;-71
2023/05/20 03:19:24;;;;;;;;;;;;;;;-140.72;100.00;52632.34;5012247;28;19972;-71
2023/05/20 03:21:49;;;;;;;;;;;;;;;-140.72;100.00;52585.66;5010034;28;19922;-71
2023/05/20 03:24:14;;;;;;;;;;;;;;;-140.72;100.00;52622.19;5012528;28;19925;-71
2023/05/20 03:26:42;;;;;;;;;;;;;;;-140.72;100.00;52618.13;5015460;28;19925;-71
2023/05/20 03:29:08;;;;;;;;;;;;;;;-140.72;100.00;52624.22;5012527;28;19961;-71
2023/05/20 03:31:33;;;;;;;;;;;;;;;-140.72;100.00;52616.09;5014050;28;20363;-71
2023/05/20 03:33:58;;;;;;;;;;;;;;;-140.72;100.00;52644.50;5012962;28;19925;-71
2023/05/20 03:36:24;;;;;;;;;;;;;;;-140.72;100.00;52624.22;5010755;28;19925;-70
2023/05/20 03:38:49;;;;;;;;;;;;;;;-140.72;100.00;52636.38;5012991;28;19932;-71
2023/05/20 03:41:14;;;;;;;;;;;;;;;-140.72;100.00;52642.47;5009632;28;19925;-71
2023/05/20 03:43:39;;;;;;;;;;;;;;;-140.72;100.00;52638.41;4995822;28;19957;-71
2023/05/20 03:46:05;;;;;;;;;;;;;;;-140.72;100.00;52654.66;5010020;28;19944;-71
2023/05/20 03:48:30;;;;;;;;;;;;;;;-140.72;100.00;52644.50;5014330;28;19922;-71
2023/05/20 03:50:55;;;;;;;;;;;;;;;-140.72;100.00;52634.38;5010365;28;19968;-71
2023/05/20 03:53:20;;;;;;;;;;;;;;;-140.72;100.00;52664.81;5011516;28;19929;-71
2023/05/20 03:55:46;;;;;;;;;;;;;;;-140.72;100.00;52595.81;4994827;28;19936;-71
2023/05/20 03:58:12;;;;;;;;;;;;;;;-140.72;100.00;52626.25;5011639;28;19922;-71
2023/05/20 04:00:38;;;;;;;;;;;;;;;-140.72;100.00;52601.91;5011350;28;19991;-71
2023/05/20 04:03:04;;;;;;;;;;;;;;;-140.72;100.00;52620.16;5011596;28;19922;-71
2023/05/20 04:05:30;;;;;;;;;;;;;;;-140.72;100.00;52636.38;5012191;28;19989;-71
2023/05/20 04:07:56;;;;;;;;;;;;;;;-140.72;100.00;52622.19;5013512;28;19930;-71
2023/05/20 04:10:21;;;;;;;;;;;;;;;-140.72;100.00;52642.47;5013095;28;20372;-71
2023/05/20 04:12:46;;;;;;;;;;;;;;;-140.72;100.00;52605.94;5013987;28;19928;-71
2023/05/20 04:15:12;;;;;;;;;;;;;;;-140.72;100.00;52630.31;5014181;28;19921;-71
2023/05/20 04:17:39;;;;;;;;;;;;;;;-140.72;100.00;52632.34;5006322;28;19929;-71
2023/05/20 04:20:06;;;;;;;;;;;;;;;-140.72;100.00;52644.50;5011553;28;19922;-71
2023/05/20 04:22:31;;;;;;;;;;;;;;;-140.72;100.00;52605.94;5014378;28;19921;-71
2023/05/20 04:24:57;;;;;;;;;;;;;;;-140.72;100.00;52597.84;5012691;28;19972;-71
2023/05/20 04:27:24;;;;;;;;;;;;;;;-140.72;100.00;52650.59;4995434;28;20275;-72
2023/05/20 04:29:51;;;;;;;;;;;;;;;-140.72;100.00;52634.38;5010927;28;19921;-72
2023/05/20 04:32:17;;;;;;;;;;;;;;;-140.72;100.00;52614.06;5011894;28;19922;-72
2023/05/20 04:34:43;;;;;;;;;;;;;;;-140.72;100.00;52626.25;5012463;28;19928;-72
2023/05/20 04:37:09;;;;;;;;;;;;;;;-140.72;100.00;52610.00;5012154;28;19921;-72
2023/05/20 04:39:35;;;;;;;;;;;;;;;-140.72;100.00;52589.72;5009729;28;19932;-71
2023/05/20 04:42:01;;;;;;;;;;;;;;;-140.72;100.00;52626.25;5008401;28;20000;-72
2023/05/20 04:44:27;;;;;;;;;;;;;;;-140.72;100.00;52630.31;5007356;28;19956;-71
2023/05/20 04:46:52;;;;;;;;;;;;;;;-140.72;100.00;52626.25;5011541;28;19971;-71
2023/05/20 04:49:17;;;;;;;;;;;;;;;-140.72;100.00;52622.19;5011357;28;19967;-71
2023/05/20 04:51:42;;;;;;;;;;;;;;;-140.72;100.00;52628.28;5010809;28;20001;-72
2023/05/20 04:54:08;;;;;;;;;;;;;;;-140.72;100.00;52622.19;5004772;28;19971;-73
2023/05/20 04:56:33;;;;;;;;;;;;;;;-140.72;100.00;52597.84;5013879;28;19937;-73
2023/05/20 04:58:58;;;;;;;;;;;;;;;-140.72;100.00;52597.84;5006668;28;20417;-73
2023/05/20 05:01:23;;;;;;;;;;;;;;;-140.72;100.00;52551.16;5008375;28;20398;-73
2023/05/20 05:03:49;;;;;;;;;;;;;;;-140.72;100.00;52628.28;5013384;28;20394;-73
2023/05/20 05:06:14;;;;;;;;;;;;;;;-140.72;100.00;52561.31;5012310;28;19925;-73
2023/05/20 05:08:39;;;;;;;;;;;;;;;-140.72;100.00;52605.94;5011951;28;19925;-73
2023/05/20 05:11:05;;;;;;;;;;;;;;;-140.72;100.00;52589.72;5012558;28;20461;-74
2023/05/20 05:13:30;;;;;;;;;;;;;;;-140.72;100.00;52575.50;5009950;28;19922;-73
2023/05/20 05:15:59;;;;;;;;;;;;;;;-140.72;100.00;52628.28;5013106;28;19976;-73
2023/05/20 05:18:24;;;;;;;;;;;;;;;-140.72;100.00;52583.63;5012975;28;19925;-73
2023/05/20 05:20:57;;;;;;;;;;;;;;;-140.72;100.00;52614.06;5013142;28;20383;-72
2023/05/20 05:23:22;;;;;;;;;;;;;;;-140.72;100.00;52603.94;5011802;28;20066;-73
2023/05/20 05:25:50;;;;;;;;;;;;;;;-140.72;100.00;52603.94;5013974;28;20228;-72
2023/05/20 05:28:15;;;;;;;;;;;;;;;-140.72;100.00;52577.53;5010948;28;19967;-72
2023/05/20 05:30:40;;;;;;;;;;;;;;;-140.72;100.00;52561.31;5010551;28;21625;-71
2023/05/20 05:33:06;;;;;;;;;;;;;;;-140.72;100.00;52603.94;5014491;28;19921;-72
2023/05/20 05:35:31;;;;;;;;;;;;;;;-140.72;100.00;52577.53;5015849;28;20007;-72
2023/05/20 05:37:56;;;;;;;;;;;;;;;-140.72;100.00;52561.31;5012123;28;20004;-72
2023/05/20 05:40:22;;;;;;;;;;;;;;;-140.72;100.00;52587.69;5015618;28;20387;-73
2023/05/20 05:42:47;;;;;;;;;;;;;;;-140.72;100.00;52547.09;5009574;28;19921;-71
2023/05/20 05:45:12;;;;;;;;;;;;;;;-140.72;100.00;52577.53;5011239;28;19972;-71
2023/05/20 05:47:41;;;;;;;;;;;;;;;-140.72;100.00;52561.31;5013189;28;20387;-72
2023/05/20 05:50:06;;;;;;;;;;;;;;;-140.72;100.00;52571.47;5002165;28;19925;-70
2023/05/20 05:52:32;;;;;;;;;;;;;;;-140.72;100.00;52534.94;5006214;28;19918;-70
2023/05/20 05:54:57;;;;;;;;;;;;;;;-140.72;100.00;52575.50;5014783;28;19971;-70
2023/05/20 05:57:22;;;;;;;;;;;;;;;-140.72;100.00;52593.78;5011194;28;19937;-71
2023/05/20 05:59:47;;;;;;;;;;;;;;;-140.72;100.00;52569.44;5015246;28;20386;-70
2023/05/20 06:02:13;;;;;;;;;;;;;;;-140.72;100.00;52553.19;5015465;28;20298;-74
2023/05/20 06:04:38;;;;;;;;;;;;;;;-140.72;100.00;52536.97;5016625;28;20008;-71
2023/05/20 06:07:04;;;;;;;;;;;;;;;-140.72;100.00;52589.72;5005339;28;20390;-71
2023/05/20 06:09:29;;;;;;;;;;;;;;;-140.72;100.00;52587.69;4999456;28;19918;-72
2023/05/20 06:11:54;;;;;;;;;;;;;;;-140.72;100.00;52565.38;5016163;28;19980;-72
2023/05/20 06:14:19;;;;;;;;;;;;;;;-140.72;100.00;52528.84;5018249;28;19917;-72
2023/05/20 06:16:44;;;;;;;;;;;;;;;-140.72;100.00;52557.25;5016251;28;19922;-72
2023/05/20 06:19:10;;;;;;;;;;;;;;;-140.72;100.00;52571.47;5015682;28;19936;-72
2023/05/20 06:21:35;;;;;;;;;;;;;;;-140.72;100.00;52547.09;5010158;28;19921;-71
2023/05/20 06:24:00;;;;;;;;;;;;;;;-140.72;100.00;52541.03;5007068;28;19918;-72
2023/05/20 06:26:26;;;;;;;;;;;;;;;-140.72;100.00;52512.59;5013575;28;19945;-72
2023/05/20 06:28:52;;;;;;;;;;;;;;;-140.72;100.00;52553.19;5016119;28;19988;-72
2023/05/20 06:31:17;;;;;;;;;;;;;;;-140.72;100.00;52539.00;5022200;28;19922;-70
2023/05/20 06:33:42;;;;;;;;;;;;;;;-140.72;100.00;52541.03;5019520;28;19971;-72
2023/05/20 06:36:07;;;;;;;;;;;;;;;-140.72;100.00;52500.44;4997417;28;19971;-72
2023/05/20 06:38:33;;;;;;;;;;;;;;;-140.72;100.00;52512.59;5017440;28;20336;-71
2023/05/20 06:40:58;;;;;;;;;;;;;;;-140.72;100.00;52512.59;5016081;28;20333;-72
2023/05/20 06:43:23;;;;;;;;;;;;;;;-140.72;100.00;52528.84;5017145;28;20079;-72
2023/05/20 06:45:49;;;;;;;;;;;;;;;-140.72;100.00;52514.63;5017252;28;20008;-72
2023/05/20 06:48:14;;;;;;;;;;;;;;;-140.72;100.00;52508.56;5016400;28;19961;-72
2023/05/20 06:50:39;;;;;;;;;;;;;;;-140.72;100.00;52490.28;5016305;28;19982;-72
2023/05/20 06:53:05;;;;;;;;;;;;;;;-140.72;100.00;52504.50;5016554;28;20012;-72
2023/05/20 06:55:30;;;;;;;;;;;;;;;-140.72;100.00;52534.94;5015728;28;20282;-72
2023/05/20 06:57:55;;;;;;;;;;;;;;;-140.72;100.00;52541.03;5015029;28;19918;-72
2023/05/20 07:00:21;;;;;;;;;;;;;;;-140.72;100.00;52496.38;5016160;28;19921;-71
2023/05/20 07:02:46;;;;;;;;;;;;;;;-140.72;100.00;52504.50;5014745;28;19928;-70
2023/05/20 07:05:11;;;;;;;;;;;;;;;-140.72;100.00;52498.41;5021963;28;20024;-70
2023/05/20 07:07:37;;;;;;;;;;;;;;;-140.72;100.00;52514.63;5009914;28;19921;-70
2023/05/20 07:10:04;;;;;;;;;;;;;;;-140.72;100.00;52504.50;5003823;28;19924;-70
2023/05/20 07:12:30;;;;;;;;;;;;;;;-140.72;100.00;52506.53;5015942;28;19949;-71
2023/05/20 07:14:55;;;;;;;;;;;;;;;-140.72;100.00;52512.59;5010693;28;19963;-76
2023/05/20 07:17:20;;;;;;;;;;;;;;;-140.72;100.00;52472.03;5014174;28;19964;-72
2023/05/20 07:19:45;;;;;;;;;;;;;;;-140.72;100.00;52508.56;5015235;28;19921;-74
2023/05/20 07:22:10;;;;;;;;;;;;;;;-140.72;100.00;52512.59;4997995;28;19918;-72
2023/05/20 07:24:36;;;;;;;;;;;;;;;-140.72;100.00;52482.16;5002601;28;19931;-73
2023/05/20 07:27:01;;;;;;;;;;;;;;;-140.72;100.00;52482.16;5014844;28;19963;-71
2023/05/20 07:29:26;;;;;;;;;;;;;;;-140.72;97.68;52502.47;5013834;28;19921;-71
2023/05/20 07:31:52;;;;;;;;;;;;;;;-140.72;100.00;52480.16;5005616;28;20379;-72
2023/05/20 07:34:17;;;;;;;;;;;;;;;-140.72;100.00;52461.88;5010358;28;20291;-71
2023/05/20 07:36:43;;;;;;;;;;;;;;;-140.72;83.58;52482.16;5012906;28;19992;-72
2023/05/20 07:39:09;;;;;;;;;;;;;;;-140.72;56.14;52514.63;5016225;28;20327;-72
2023/05/20 07:41:35;;;;;;;;;;;;;;;-140.72;31.99;52486.22;5014658;28;19929;-72
2023/05/20 07:44:01;;;;;;;;;;;;;;;-140.72;20.20;52494.34;5010862;28;19917;-71
2023/05/20 07:46:26;;;;;;;;;;;;;;;-140.72;10.82;52480.16;5010449;28;20394;-71
2023/05/20 07:48:51;;;;;;;;;;;;;;;-140.72;0.00;52439.56;5011850;28;19922;-71
2023/05/20 07:51:17;;;;;;;;;;;;;;;-140.72;0.00;52494.34;5008320;28;19921;-71
2023/05/20 07:53:43;;;;;;;;;;;;;;;-140.72;0.00;52439.56;4999959;28;19921;-72
2023/05/20 07:56:08;;;;;;;;;;;;;;;-140.72;0.00;52423.31;5011406;28;19924;-72
2023/05/20 07:58:33;;;;;;;;;;;;;;;-140.72;0.00;52453.75;5013871;28;19922;-72
2023/05/20 08:00:58;;;;;;;;;;;;;;;-140.72;0.00;52409.13;5014108;28;19960;-71
2023/05/20 08:03:24;;;;;;;;;;;;;;;-140.72;0.00;52411.16;5013817;28;20351;-71
2023/05/20 08:05:49;;;;;;;;;;;;;;;-140.72;0.00;52451.72;5020471;28;19921;-75
2023/05/20 08:08:15;;;;;;;;;;;;;;;-140.72;0.00;52407.09;5014361;28;20405;-72
2023/05/20 08:10:40;;;;;;;;;;;;;;;-140.72;0.00;52411.16;5013932;28;19921;-72
2023/05/20 08:13:05;;;;;;;;;;;;;;;-140.72;0.00;52409.13;5011242;28;20318;-72
2023/05/20 08:15:30;;;;;;;;;;;;;;;-140.72;0.00;52384.78;5009254;28;19922;-74
2023/05/20 08:17:56;;;;;;;;;;;;;;;-140.72;0.00;52376.66;5002158;28;19922;-74
2023/05/20 08:20:21;;;;;;;;;;;;;;;-140.72;0.00;52405.06;5015446;28;19922;-75
2023/05/20 08:22:46;;;;;;;;;;;;;;;-140.72;0.00;52368.53;5011008;28;19917;-75
2023/05/20 08:25:11;;;;;;;;;;;;;;;-140.72;0.00;52321.88;5012828;28;19924;-74
2023/05/20 08:27:37;;;;;;;;;;;;;;;-140.72;0.00;52342.16;4999670;28;19922;-75
2023/05/20 08:30:03;;;;;;;;;;;;;;;-140.72;0.00;52334.03;5012209;28;19925;-74
2023/05/20 08:32:28;;;;;;;;;;;;;;;-140.72;0.00;52309.69;5014465;28;20442;-74
2023/05/20 08:34:55;;;;;;;;;;;;;;;-140.72;0.00;52321.88;5013304;28;20195;-74
2023/05/20 08:37:20;;;;;;;;;;;;;;;-140.72;0.00;52340.13;4997819;28;20379;-74
2023/05/20 08:39:48;;;;;;;;;;;;;;;-140.72;0.00;52297.53;5012976;28;19971;-74
2023/05/20 08:42:13;;;;;;;;;;;;;;;-140.72;0.00;52332.03;5002163;28;19945;-74
2023/05/20 08:44:39;;;;;;;;;;;;;;;-140.72;0.00;52297.53;5008548;28;19917;-75
2023/05/20 08:47:06;;;;;;;;;;;;;;;-140.72;0.00;52309.69;5009974;28;20020;-74
2023/05/20 08:49:31;;;;;;;;;;;;;;;-140.72;0.00;52309.69;5001863;28;19922;-74
2023/05/20 08:51:58;;;;;;;;;;;;;;;-140.72;0.00;52273.19;5007467;28;20008;-74
2023/05/20 08:54:25;;;;;;;;;;;;;;;-140.72;0.00;52258.97;5011090;28;19921;-74
2023/05/20 08:56:59;;;;;;;;;;;;;;;-140.72;0.00;52200.13;5012632;28;19941;-74
2023/05/20 08:59:25;;;;;;;;;;;;;;;-140.72;0.00;52256.94;5014613;28;20306;-75
2023/05/20 09:01:50;;;;;;;;;;;;;;;-140.72;0.00;52226.50;5012945;28;19928;-74
2023/05/20 09:04:16;;;;;;;;;;;;;;;-140.72;0.00;52222.44;4989519;28;19921;-74
2023/05/20 09:06:45;;;;;;;;;;;;;;;-140.72;0.00;52234.63;5005483;28;19918;-74
2023/05/20 09:09:14;;;;;;;;;;;;;;;-140.72;0.00;52192.00;5007165;28;19940;-74
2023/05/20 09:11:40;;;;;;;;;;;;;;;-140.72;0.00;52204.19;5004571;28;19932;-74
2023/05/20 09:14:31;;;;;;;;;;;;;;;-140.72;0.00;52179.84;5012934;28;20359;-74
2023/05/20 09:16:56;;;;;;;;;;;;;;;-140.72;0.00;52151.44;5016231;28;19971;-75
2023/05/20 09:19:22;;;;;;;;;;;;;;;-140.72;0.00;52151.44;5009929;28;19921;-74
2023/05/20 09:21:48;;;;;;;;;;;;;;;-140.72;0.00;52106.78;4997696;28;19918;-75
2023/05/20 09:24:13;;;;;;;;;;;;;;;-140.72;0.00;52121.00;5009674;28;19917;-74
2023/05/20 09:26:38;;;;;;;;;;;;;;;-140.72;0.00;52133.16;5006173;28;19964;-75
2023/05/20 09:29:04;;;;;;;;;;;;;;;-140.72;0.00;52096.66;5011857;28;19933;-75
2023/05/20 09:31:32;;;;;;;;;;;;;;;-140.72;0.00;52118.97;4995918;28;19918;-75
2023/05/20 09:33:59;;;;;;;;;;;;;;;-140.72;0.00;52159.56;5002606;28;19929;-75
2023/05/20 09:36:26;;;;;;;;;;;;;;;-140.72;0.00;52100.72;4996682;28;19992;-74
2023/05/20 09:38:52;;;;;;;;;;;;;;;-140.72;0.00;52054.03;5007918;28;20375;-74
2023/05/20 09:41:32;;;;;;;;;;;;;;;-140.72;0.00;52054.03;5012958;28;19926;-74
2023/05/20 09:43:58;;;;;;;;;;;;;;;-140.72;0.00;52019.56;5007675;28;19921;-76
2023/05/20 09:46:24;;;;;;;;;;;;;;;-140.72;0.00;52049.97;4998266;28;19928;-73
2023/05/20 09:48:59;;;;;;;;;;;;;;;-140.72;0.00;51997.22;5006933;28;19956;-75
2023/05/20 09:51:26;;;;;;;;;;;;;;;-140.72;0.00;52029.69;5012103;28;20080;-73
2023/05/20 09:53:56;;;;;;;;;;;;;;;-140.72;0.00;51981.00;5014107;28;19918;-74
2023/05/20 09:56:22;;;;;;;;;;;;;;;-140.72;0.00;51956.66;5005017;28;20017;-73
2023/05/20 09:58:48;;;;;;;;;;;;;;;-140.72;0.00;51964.78;5015515;28;19922;-73
2023/05/20 10:01:14;;;;;;;;;;;;;;;-140.72;0.00;51958.69;5006468;28;19918;-73
2023/05/20 10:03:39;;;;;;;;;;;;;;;-140.72;0.00;51944.47;4999535;28;19940;-72
2023/05/20 10:06:23;;;;;;;;;;;;;;;-140.72;0.00;51940.41;5001139;28;20311;-73
2023/05/20 10:08:57;;;;;;;;;;;;;;;-140.72;0.00;51893.75;5012534;28;19930;-77
2023/05/20 10:11:25;;;;;;;;;;;;;;;-140.72;0.00;51983.03;5006473;28;20074;-73
2023/05/20 10:14:01;;;;;;;;;;;;;;;-140.72;0.00;52049.97;5010093;28;20390;-77
2023/05/20 10:16:45;;;;;;;;;;;;;;;-140.72;0.00;52009.41;5008667;28;19976;-73
2023/05/20 10:19:30;;;;;;;;;;;;;;;-140.72;0.00;52092.59;5012257;28;19928;-73
2023/05/20 10:22:00;;;;;;;;;;;;;;;-140.72;0.00;51934.34;5016601;28;19926;-73
2023/05/20 10:24:31;;;;;;;;;;;;;;;-140.72;0.00;51956.66;4996635;28;19925;-74
2023/05/20 10:26:56;;;;;;;;;;;;;;;-140.72;0.00;51841.00;4997162;28;19921;-73
2023/05/20 10:29:22;;;;;;;;;;;;;;;-140.72;0.00;51907.97;5014793;28;19936;-73
2023/05/20 10:31:48;;;;;;;;;;;;;;;-140.72;0.00;51948.53;4997635;28;19926;-73
2023/05/20 10:34:15;;;;;;;;;;;;;;;-140.72;0.00;52031.72;5011149;28;19922;-75
2023/05/20 10:36:44;;;;;;;;;;;;;;;-140.72;0.00;52078.38;4999790;28;19922;-73
2023/05/20 10:39:14;;;;;;;;;;;;;;;-140.72;0.00;52104.75;5012482;28;21059;-72
2023/05/20 10:41:39;;;;;;;;;;;;;;;-140.72;0.00;51997.22;5013849;28;19933;-71
2023/05/20 10:44:05;;;;;;;;;;;;;;;-140.72;0.00;51946.50;5013938;28;19930;-71
2023/05/20 10:46:31;;;;;;;;;;;;;;;-140.72;0.00;52045.94;5014514;28;19959;-72
2023/05/20 10:48:57;;;;;;;;;;;;;;;-140.72;0.00;51936.38;4997573;28;19929;-72
2023/05/20 10:51:22;;;;;;;;;;;;;;;-140.72;0.00;52064.19;5009319;28;20369;-72
2023/05/20 10:53:51;;;;;;;;;;;;;;;-140.72;0.00;52114.91;5013162;28;19999;-72
2023/05/20 10:56:17;;;;;;;;;;;;;;;-140.72;0.00;51993.19;5010593;28;19921;-72
2023/05/20 10:58:43;;;;;;;;;;;;;;;-140.72;0.00;51907.97;5013904;28;19996;-72
2023/05/20 11:01:09;;;;;;;;;;;;;;;-140.72;0.00;51867.38;5010896;28;20406;-72
2023/05/20 11:03:34;;;;;;;;;;;;;;;-140.72;0.00;51808.53;5009683;28;20427;-72
2023/05/20 11:06:00;;;;;;;;;;;;;;;-140.72;0.00;51780.16;5010181;28;19968;-72
2023/05/20 11:08:28;;;;;;;;;;;;;;;-140.72;0.00;51916.06;5013803;28;19960;-72
2023/05/20 11:10:54;;;;;;;;;;;;;;;-140.72;0.00;51932.31;5011429;28;20351;-72
2023/05/20 11:13:20;;;;;;;;;;;;;;;-140.72;0.00;52017.53;5007710;28;19925;-72
2023/05/20 11:15:47;;;;;;;;;;;;;;;-140.72;0.00;52047.97;5015197;28;20293;-72
2023/05/20 11:18:14;;;;;;;;;;;;;;;-140.72;0.00;52027.66;5012656;28;19932;-72
2023/05/20 11:20:39;;;;;;;;;;;;;;;-140.72;0.00;52056.06;5011797;28;20019;-72
2023/05/20 11:23:05;;;;;;;;;;;;;;;-140.72;0.00;52082.44;5009984;28;20367;-72
2023/05/20 11:25:31;;;;;;;;;;;;;;;-140.72;0.00;52009.41;5011888;28;19967;-72
2023/05/20 11:27:56;;;;;;;;;;;;;;;-140.72;0.00;51920.13;5010983;28;20008;-72
2023/05/20 11:30:22;;;;;;;;;;;;;;;-140.72;0.00;51993.19;5013131;28;20402;-72
2023/05/20 11:33:00;;;;;;;;;;;;;;;-140.72;0.00;51958.69;5009244;28;20402;-72
2023/05/20 11:35:27;;;;;;;;;;;;;;;-140.72;0.00;51940.41;5010567;28;20306;-72
2023/05/20 11:37:56;;;;;;;;;;;;;;;-140.72;0.00;51818.69;5014634;28;19921;-71
2023/05/20 11:40:25;;;;;;;;;;;;;;;-140.72;0.00;51853.19;5014532;28;19921;-72
2023/05/20 11:42:57;;;;;;;;;;;;;;;-140.72;0.00;51893.75;5006696;28;19967;-72
2023/05/20 11:45:23;;;;;;;;;;;;;;;-140.72;0.00;51995.19;5014978;28;19929;-72
2023/05/20 11:48:01;;;;;;;;;;;;;;;-140.72;0.00;51897.81;5014015;28;20375;-71
2023/05/20 11:50:27;;;;;;;;;;;;;;;-140.72;0.00;51948.53;5012956;28;19921;-72
2023/05/20 11:52:59;;;;;;;;;;;;;;;-140.72;0.00;51778.13;5005655;28;19928;-72
2023/05/20 11:55:27;;;;;;;;;;;;;;;-140.72;0.00;51883.63;5010224;28;19926;-72
2023/05/20 11:57:53;;;;;;;;;;;;;;;-140.72;0.00;51838.97;5012019;28;20002;-72
2023/05/20 12:00:19;;;;;;;;;;;;;;;-140.72;0.00;51968.81;5011364;28;19934;-72
2023/05/20 12:02:45;;;;;;;;;;;;;;;-140.72;0.00;51782.16;5011060;28;19926;-72
2023/05/20 12:05:10;;;;;;;;;;;;;;;-140.72;0.00;51776.09;5011227;28;19921;-72
2023/05/20 12:07:35;;;;;;;;;;;;;;;-140.72;0.00;51849.13;5015498;28;19964;-72
2023/05/20 12:10:02;;;;;;;;;;;;;;;-140.72;0.00;51828.84;5009020;28;19925;-72
2023/05/20 12:12:27;;;;;;;;;;;;;;;-140.72;0.00;51944.47;5009010;28;19929;-72
2023/05/20 12:14:52;;;;;;;;;;;;;;;-140.72;0.00;51814.63;5012633;28;19927;-72
2023/05/20 12:17:17;;;;;;;;;;;;;;;-140.72;0.00;51753.78;5013342;28;19929;-71
2023/05/20 12:19:43;;;;;;;;;;;;;;;-140.72;0.00;51729.44;5012102;28;19921;-72